createdAt,value
2018-12-23T00:01:14.493Z,11.87
2018-12-23T00:03:45.258Z,9.60
2018-12-23T00:06:16.242Z,11.93
2018-12-23T00:08:47.227Z,11.87
2018-12-23T00:11:18.312Z,13.53
2018-12-23T00:13:49.549Z,11.57
2018-12-23T00:16:20.614Z,10.50
2018-12-23T00:18:51.808Z,11.95
2018-12-23T00:21:22.758Z,14.43
2018-12-23T00:23:53.742Z,9.45
2018-12-23T00:26:24.683Z,14.90
2018-12-23T00:28:55.523Z,16.63
2018-12-23T00:31:26.523Z,8.47
2018-12-23T00:33:57.608Z,11.27
2018-12-23T00:36:28.457Z,9.17
2018-12-23T00:38:59.477Z,17.27
2018-12-23T00:41:30.407Z,12.77
2018-12-23T00:44:01.297Z,11.80
2018-12-23T00:46:32.647Z,15.17
2018-12-23T00:49:03.847Z,12.07
2018-12-23T00:51:34.697Z,11.57
2018-12-23T00:54:05.532Z,11.07
2018-12-23T00:56:36.412Z,13.50
2018-12-23T00:59:07.588Z,10.47
2018-12-23T01:01:38.508Z,11.03
2018-12-23T01:04:09.377Z,15.03
2018-12-23T01:06:40.252Z,20.97
2018-12-23T01:09:11.067Z,11.00
2018-12-23T01:11:42.097Z,10.70
2018-12-23T01:14:13.007Z,12.43
2018-12-23T01:16:43.857Z,10.83
2018-12-23T01:19:15.273Z,7.33
2018-12-23T01:21:46.332Z,11.83
2018-12-23T01:24:17.068Z,14.93
2018-12-23T01:26:47.977Z,15.40
2018-12-23T01:29:18.772Z,11.83
2018-12-23T01:31:49.650Z,10.60
2018-12-23T01:34:20.478Z,15.37
2018-12-23T01:36:51.393Z,19.10
2018-12-23T01:39:22.377Z,11.07
2018-12-23T01:41:53.353Z,12.35
2018-12-23T01:44:24.152Z,17.60
2018-12-23T01:46:55.607Z,13.20
2018-12-23T01:49:26.708Z,10.57
2018-12-23T01:51:57.527Z,15.10
2018-12-23T01:54:28.332Z,12.80
2018-12-23T01:56:59.237Z,10.43
2018-12-23T01:59:30.033Z,18.15
2018-12-23T02:02:01.077Z,10.80
2018-12-23T02:04:31.942Z,13.50
2018-12-23T02:07:02.683Z,11.43
2018-12-23T02:09:33.602Z,13.30
2018-12-23T02:12:04.538Z,16.50
2018-12-23T02:14:35.320Z,12.90
2018-12-23T02:17:06.147Z,21.13
2018-12-23T02:19:37.098Z,12.13
2018-12-23T02:22:07.842Z,17.23
2018-12-23T02:24:38.597Z,21.03
2018-12-23T02:27:09.302Z,14.37
2018-12-23T02:29:41.157Z,14.23
2018-12-23T02:32:11.897Z,14.17
2018-12-23T02:34:42.882Z,19.50
2018-12-23T02:37:13.618Z,10.63
2018-12-23T02:39:44.628Z,16.60
2018-12-23T02:42:15.398Z,12.87
2018-12-23T02:44:46.973Z,16.35
2018-12-23T02:47:18.153Z,13.37
2018-12-23T02:49:49.063Z,12.87
2018-12-23T02:52:19.877Z,13.10
2018-12-23T02:54:50.642Z,18.53
2018-12-23T02:57:21.442Z,17.40
2018-12-23T02:59:58.622Z,12.80
2018-12-23T03:02:29.713Z,16.47
2018-12-23T03:05:00.572Z,16.73
2018-12-23T03:07:31.411Z,12.60
2018-12-23T03:10:02.176Z,17.10
2018-12-23T03:12:33.143Z,13.23
2018-12-23T03:15:03.962Z,16.77
2018-12-23T03:17:34.747Z,13.47
2018-12-23T03:20:05.881Z,14.73
2018-12-23T03:22:36.783Z,14.47
2018-12-23T03:25:07.651Z,17.30
2018-12-23T03:27:38.447Z,24.27
2018-12-23T03:30:09.303Z,22.17
2018-12-23T03:32:40.082Z,14.27
2018-12-23T03:35:10.916Z,15.97
2018-12-23T03:37:41.597Z,20.23
2018-12-23T03:40:12.346Z,17.48
2018-12-23T03:42:43.176Z,15.37
2018-12-23T03:45:14.036Z,16.47
2018-12-23T03:47:45.286Z,18.33
2018-12-23T03:50:16.362Z,22.47
2018-12-23T03:52:47.356Z,19.30
2018-12-23T03:55:18.146Z,16.63
2018-12-23T03:57:48.966Z,19.17
2018-12-23T04:00:19.881Z,22.00
2018-12-23T04:02:50.879Z,19.93
2018-12-23T04:05:21.710Z,17.67
2018-12-23T04:07:52.621Z,21.97
2018-12-23T04:10:23.403Z,23.53
2018-12-23T04:12:54.431Z,19.57
2018-12-23T04:15:25.216Z,30.17
2018-12-23T04:17:57.446Z,23.47
2018-12-23T04:20:28.381Z,33.30
2018-12-23T04:22:59.206Z,21.83
2018-12-23T04:25:30.016Z,20.00
2018-12-23T04:28:00.872Z,20.00
2018-12-23T04:30:31.661Z,17.57
2018-12-23T04:33:02.561Z,21.67
2018-12-23T04:35:39.772Z,16.93
2018-12-23T04:38:10.676Z,21.63
2018-12-23T04:40:41.381Z,21.00
2018-12-23T04:43:12.267Z,25.00
2018-12-23T04:45:43.072Z,23.30
2018-12-23T04:48:14.492Z,29.00
2018-12-23T04:50:45.396Z,21.90
2018-12-23T04:53:16.265Z,20.80
2018-12-23T04:55:47.128Z,24.43
2018-12-23T04:58:18.237Z,22.57
2018-12-23T05:00:49.992Z,25.13
2018-12-23T05:03:20.857Z,24.03
2018-12-23T05:05:51.617Z,24.90
2018-12-23T05:08:22.441Z,23.43
2018-12-23T05:10:53.206Z,25.20
2018-12-23T05:13:24.027Z,24.10
2018-12-23T05:15:54.682Z,23.87
2018-12-23T05:18:25.643Z,37.97
2018-12-23T05:20:56.678Z,28.17
2018-12-23T05:23:28.792Z,27.67
2018-12-23T05:25:59.722Z,27.47
2018-12-23T05:28:30.481Z,29.27
2018-12-23T05:31:01.136Z,25.05
2018-12-23T05:33:31.882Z,30.33
2018-12-23T05:36:02.685Z,20.62
2018-12-23T05:38:33.636Z,30.40
2018-12-23T05:41:04.452Z,31.03
2018-12-23T05:43:35.354Z,28.60
2018-12-23T05:46:06.137Z,30.73
2018-12-23T05:48:37.562Z,29.03
2018-12-23T05:51:08.469Z,36.23
2018-12-23T05:53:39.471Z,30.27
2018-12-23T05:56:10.271Z,33.63
2018-12-23T05:58:41.081Z,28.03
2018-12-23T06:01:11.861Z,25.83
2018-12-23T06:03:42.722Z,21.40
2018-12-23T06:06:13.491Z,26.30
2018-12-23T06:08:47.241Z,28.63
2018-12-23T06:11:17.972Z,38.23
2018-12-23T06:13:49.721Z,41.75
2018-12-23T06:16:20.506Z,27.50
2018-12-23T06:18:51.792Z,31.13
2018-12-23T06:21:22.918Z,23.23
2018-12-23T06:23:53.793Z,30.97
2018-12-23T06:26:24.529Z,26.00
2018-12-23T06:28:55.387Z,24.83
2018-12-23T06:31:26.824Z,23.77
2018-12-23T06:33:58.856Z,23.97
2018-12-23T06:36:29.601Z,22.27
2018-12-23T06:39:00.532Z,28.47
2018-12-23T06:41:31.401Z,16.13
2018-12-23T06:44:02.275Z,42.50
2018-12-23T06:46:33.061Z,13.13
2018-12-23T06:49:04.437Z,14.03
2018-12-23T06:51:35.557Z,20.63
2018-12-23T06:54:06.496Z,17.45
2018-12-23T06:56:37.316Z,12.43
2018-12-23T06:59:08.239Z,14.43
2018-12-23T07:01:39.086Z,18.13
2018-12-23T07:04:10.146Z,8.47
2018-12-23T07:06:40.936Z,13.80
2018-12-23T07:09:11.861Z,9.67
2018-12-23T07:11:42.670Z,8.53
2018-12-23T07:14:13.521Z,6.10
2018-12-23T07:16:47.265Z,8.00
2018-12-23T07:19:18.321Z,6.87
2018-12-23T07:21:49.246Z,8.75
2018-12-23T07:24:20.070Z,9.77
2018-12-23T07:26:50.996Z,9.13
2018-12-23T07:29:21.846Z,7.27
2018-12-23T07:31:53.556Z,7.47
2018-12-23T07:34:24.391Z,5.77
2018-12-23T07:36:55.460Z,7.00
2018-12-23T07:39:26.296Z,8.33
2018-12-23T07:41:57.151Z,7.27
2018-12-23T07:44:28.098Z,5.78
2018-12-23T07:46:58.877Z,8.88
2018-12-23T07:49:30.275Z,8.10
2018-12-23T07:52:01.262Z,8.90
2018-12-23T07:54:32.192Z,9.70
2018-12-23T07:57:02.962Z,16.67
2018-12-23T07:59:34.011Z,14.93
2018-12-23T08:02:05.297Z,18.10
2018-12-23T08:04:36.232Z,15.07
2018-12-23T08:07:07.240Z,15.83
2018-12-23T08:09:38.291Z,18.87
2018-12-23T08:12:09.166Z,9.20
2018-12-23T08:14:40.065Z,9.47
2018-12-23T08:17:11.060Z,14.10
2018-12-23T08:19:41.976Z,12.17
2018-12-23T08:22:13.000Z,8.27
2018-12-23T08:24:44.560Z,8.60
2018-12-23T08:27:15.521Z,13.00
2018-12-23T08:29:46.616Z,9.23
2018-12-23T08:32:17.420Z,5.70
2018-12-23T08:34:48.335Z,9.13
2018-12-23T08:37:19.212Z,12.57
2018-12-23T08:39:50.196Z,11.83
2018-12-23T08:42:21.037Z,9.70
2018-12-23T08:44:52.180Z,11.57
2018-12-23T08:47:22.971Z,9.43
2018-12-23T08:49:54.226Z,8.50
2018-12-23T08:52:25.211Z,8.60
2018-12-23T08:54:56.396Z,8.47
2018-12-23T08:57:27.206Z,12.10
2018-12-23T08:59:58.185Z,9.73
2018-12-23T09:02:29.106Z,9.90
2018-12-23T09:05:00.001Z,9.13
2018-12-23T09:07:30.940Z,11.77
2018-12-23T09:10:02.046Z,10.23
2018-12-23T09:12:33.022Z,9.93
2018-12-23T09:15:04.026Z,8.20
2018-12-23T09:17:34.906Z,11.27
2018-12-23T09:20:05.917Z,8.47
2018-12-23T09:22:36.968Z,13.30
2018-12-23T09:25:08.975Z,9.17
2018-12-23T09:27:39.872Z,6.73
2018-12-23T09:30:10.877Z,10.77
2018-12-23T09:32:41.810Z,8.23
2018-12-23T09:35:13.082Z,8.90
2018-12-23T09:37:44.020Z,8.07
2018-12-23T09:40:15.308Z,8.47
2018-12-23T09:42:46.180Z,10.63
2018-12-23T09:45:17.231Z,8.93
2018-12-23T09:47:48.081Z,11.30
2018-12-23T09:50:19.547Z,10.87
2018-12-23T09:52:50.538Z,13.33
2018-12-23T09:55:21.505Z,12.87
2018-12-23T09:57:52.273Z,12.70
2018-12-23T10:00:23.131Z,12.73
2018-12-23T10:02:53.906Z,9.50
2018-12-23T10:05:24.820Z,8.90
2018-12-23T10:07:55.680Z,7.17
2018-12-23T10:10:28.538Z,7.67
2018-12-23T10:12:59.451Z,12.60
2018-12-23T10:15:30.481Z,11.10
2018-12-23T10:18:02.491Z,12.95
2018-12-23T10:20:33.362Z,11.43
2018-12-23T10:23:04.387Z,6.67
2018-12-23T10:25:35.306Z,9.07
2018-12-23T10:28:06.111Z,8.30
2018-12-23T10:30:37.006Z,10.73
2018-12-23T10:33:09.032Z,10.30
2018-12-23T10:35:40.181Z,11.97
2018-12-23T10:38:18.355Z,7.53
2018-12-23T10:40:45.390Z,8.60
2018-12-23T10:43:16.151Z,6.67
2018-12-23T10:45:47.232Z,10.57
2018-12-23T10:48:18.217Z,20.50
2018-12-23T10:50:49.417Z,8.40
2018-12-23T10:53:20.196Z,9.53
2018-12-23T10:55:51.107Z,8.23
2018-12-23T10:58:21.811Z,9.60
2018-12-23T11:00:52.678Z,8.40
2018-12-23T11:03:23.442Z,11.97
2018-12-23T11:05:54.290Z,10.03
2018-12-23T11:08:26.980Z,8.83
2018-12-23T11:10:58.786Z,5.28
2018-12-23T11:13:29.494Z,8.17
2018-12-23T11:16:00.442Z,11.53
2018-12-23T11:18:31.281Z,16.40
2018-12-23T11:21:02.391Z,6.33
2018-12-23T11:23:33.571Z,11.43
2018-12-23T11:26:04.521Z,15.57
2018-12-23T11:28:35.365Z,15.83
2018-12-23T11:31:06.315Z,9.15
2018-12-23T11:33:37.180Z,10.77
2018-12-23T11:36:08.051Z,8.20
2018-12-23T11:38:38.986Z,5.00
2018-12-23T11:41:09.898Z,8.53
2018-12-23T11:43:40.930Z,9.13
2018-12-23T11:46:11.962Z,8.53
2018-12-23T11:48:43.040Z,9.23
2018-12-23T11:51:14.471Z,10.25
2018-12-23T11:53:45.520Z,7.58
2018-12-23T11:56:16.721Z,5.22
2018-12-23T11:58:47.546Z,4.90
2018-12-23T12:01:18.435Z,6.90
2018-12-23T12:03:49.220Z,5.27
2018-12-23T12:06:20.113Z,5.73
2018-12-23T12:08:51.310Z,8.13
2018-12-23T12:11:22.285Z,5.97
2018-12-23T12:13:53.176Z,5.87
2018-12-23T12:16:24.150Z,5.07
2018-12-23T12:18:55.166Z,8.23
2018-12-23T12:21:26.435Z,6.00
2018-12-23T12:23:57.477Z,7.07
2018-12-23T12:26:28.556Z,13.53
2018-12-23T12:29:00.591Z,8.90
2018-12-23T12:31:31.660Z,8.57
2018-12-23T12:34:02.558Z,7.37
2018-12-23T12:36:34.388Z,13.53
2018-12-23T12:39:07.706Z,10.03
2018-12-23T12:41:39.181Z,10.88
2018-12-23T12:44:10.237Z,10.77
2018-12-23T12:46:41.307Z,8.83
2018-12-23T12:49:12.172Z,5.93
2018-12-23T12:51:43.781Z,7.13
2018-12-23T12:54:15.016Z,6.53
2018-12-23T12:56:46.342Z,3.40
2018-12-23T12:59:17.228Z,6.57
2018-12-23T13:01:48.602Z,8.07
2018-12-23T13:04:19.636Z,6.67
2018-12-23T13:06:53.816Z,5.10
2018-12-23T13:09:25.087Z,9.13
2018-12-23T13:11:56.037Z,7.37
2018-12-23T13:14:27.003Z,6.90
2018-12-23T13:16:57.772Z,11.13
2018-12-23T13:19:29.164Z,7.53
2018-12-23T13:22:00.208Z,7.90
2018-12-23T13:24:31.183Z,6.73
2018-12-23T13:27:02.062Z,6.50
2018-12-23T13:29:33.041Z,5.10
2018-12-23T13:32:04.992Z,6.50
2018-12-23T13:34:35.826Z,5.77
2018-12-23T13:37:06.921Z,6.93
2018-12-23T13:39:38.031Z,7.73
2018-12-23T13:42:23.667Z,5.10
2018-12-23T13:45:40.512Z,6.20
2018-12-23T13:49:38.581Z,4.25
2018-12-23T13:52:31.261Z,10.57
2018-12-23T13:55:11.912Z,7.97
2018-12-23T13:59:54.223Z,6.17
2018-12-23T14:02:48.612Z,10.10
2018-12-23T14:05:31.902Z,9.13
2018-12-23T14:10:17.202Z,6.70
2018-12-23T14:12:48.160Z,4.53
2018-12-23T14:15:19.327Z,5.25
2018-12-23T14:17:51.031Z,4.93
2018-12-23T14:20:22.326Z,7.20
2018-12-23T14:22:53.311Z,9.77
2018-12-23T14:25:24.404Z,13.80
2018-12-23T14:27:55.421Z,7.10
2018-12-23T14:30:26.482Z,9.93
2018-12-23T14:32:57.430Z,12.13
2018-12-23T14:35:28.421Z,10.40
2018-12-23T14:37:59.547Z,13.17
2018-12-23T14:40:30.692Z,11.60
2018-12-23T14:43:01.823Z,23.27
2018-12-23T14:45:32.700Z,17.03
2018-12-23T14:48:03.936Z,12.97
2018-12-23T14:50:34.997Z,24.40
2018-12-23T14:53:06.491Z,19.80
2018-12-23T14:55:37.532Z,11.07
2018-12-23T14:58:08.703Z,16.27
2018-12-23T15:00:39.867Z,13.93
2018-12-23T15:03:10.804Z,16.03
2018-12-23T15:05:41.948Z,15.13
2018-12-23T15:08:13.361Z,23.83
2018-12-23T15:10:44.491Z,22.40
2018-12-23T15:13:15.323Z,26.77
2018-12-23T15:15:46.597Z,14.83
2018-12-23T15:18:17.561Z,15.55
2018-12-23T15:20:48.497Z,18.87
2018-12-23T15:23:19.747Z,16.70
2018-12-23T15:25:51.487Z,16.77
2018-12-23T15:28:22.472Z,16.37
2018-12-23T15:30:53.771Z,17.80
2018-12-23T15:33:24.734Z,18.23
2018-12-23T15:35:55.926Z,14.03
2018-12-23T15:38:26.891Z,14.90
2018-12-23T15:40:57.879Z,19.00
2018-12-23T15:43:28.796Z,18.63
2018-12-23T15:45:59.801Z,20.90
2018-12-23T15:48:30.931Z,17.70
2018-12-23T15:51:01.934Z,19.23
2018-12-23T15:53:33.517Z,21.47
2018-12-23T15:56:05.152Z,19.48
2018-12-23T15:58:36.367Z,30.27
2018-12-23T16:01:08.741Z,21.83
2018-12-23T16:03:39.562Z,20.03
2018-12-23T16:06:10.459Z,19.90
2018-12-23T16:08:41.403Z,17.40
2018-12-23T16:11:12.715Z,23.62
2018-12-23T16:13:43.491Z,28.87
2018-12-23T16:16:14.454Z,25.40
2018-12-23T16:18:45.307Z,20.60
2018-12-23T16:21:16.106Z,19.23
2018-12-23T16:23:46.976Z,17.37
2018-12-23T16:26:18.776Z,15.57
2018-12-23T16:28:49.461Z,20.27
2018-12-23T16:31:20.336Z,26.37
2018-12-23T16:33:51.136Z,20.73
2018-12-23T16:36:22.046Z,32.53
2018-12-23T16:38:52.907Z,18.35
2018-12-23T16:41:23.843Z,13.53
2018-12-23T16:43:54.731Z,14.20
2018-12-23T16:46:25.652Z,29.30
2018-12-23T16:48:56.436Z,16.60
2018-12-23T16:51:27.317Z,19.43
2018-12-23T16:53:58.911Z,13.10
2018-12-23T16:56:29.967Z,16.53
2018-12-23T16:59:01.092Z,17.70
2018-12-23T17:01:31.947Z,22.67
2018-12-23T17:04:02.656Z,15.03
2018-12-23T17:06:33.636Z,20.80
2018-12-23T17:09:06.661Z,16.67
2018-12-23T17:11:37.721Z,18.00
2018-12-23T17:14:10.647Z,16.40
2018-12-23T17:16:41.678Z,25.57
2018-12-23T17:19:12.531Z,13.97
2018-12-23T17:21:43.362Z,25.43
2018-12-23T17:24:14.171Z,13.93
2018-12-23T17:26:45.216Z,13.43
2018-12-23T17:29:22.096Z,21.90
2018-12-23T17:31:53.036Z,14.90
2018-12-23T17:34:23.952Z,20.47
2018-12-23T17:37:00.371Z,19.00
2018-12-23T17:39:32.311Z,16.33
2018-12-23T17:42:03.547Z,21.93
2018-12-23T17:44:35.418Z,15.30
2018-12-23T17:47:07.582Z,15.33
2018-12-23T17:49:38.251Z,18.30
2018-12-23T17:52:09.196Z,13.47
2018-12-23T17:54:40.346Z,15.33
2018-12-23T17:57:11.352Z,12.80
2018-12-23T17:59:42.687Z,14.93
2018-12-23T18:02:13.524Z,15.53
2018-12-23T18:04:44.347Z,20.00
2018-12-23T18:07:15.245Z,14.67
2018-12-23T18:09:45.939Z,20.10
2018-12-23T18:12:17.891Z,13.43
2018-12-23T18:14:48.633Z,14.50
2018-12-23T18:17:19.389Z,13.67
2018-12-23T18:19:50.182Z,16.03
2018-12-23T18:22:21.087Z,14.57
2018-12-23T18:24:51.812Z,20.00
2018-12-23T18:27:22.716Z,12.37
2018-12-23T18:29:53.532Z,14.90
2018-12-23T18:32:24.452Z,17.33
2018-12-23T18:34:55.222Z,17.50
2018-12-23T18:37:26.077Z,16.37
2018-12-23T18:39:56.808Z,22.83
2018-12-23T18:42:27.737Z,13.97
2018-12-23T18:44:58.631Z,19.53
2018-12-23T18:47:29.452Z,19.77
2018-12-23T18:50:00.322Z,16.37
2018-12-23T18:52:31.184Z,16.03
2018-12-23T18:55:02.472Z,18.73
2018-12-23T18:57:38.202Z,20.93
2018-12-23T19:00:10.047Z,27.77
2018-12-23T19:02:49.832Z,24.70
2018-12-23T19:05:20.789Z,27.83
2018-12-23T19:07:54.837Z,21.67
2018-12-23T19:10:41.973Z,28.07
2018-12-23T19:13:21.588Z,25.30
2018-12-23T19:16:16.662Z,25.60
2018-12-23T19:19:20.187Z,19.73
2018-12-23T19:22:01.402Z,18.17
2018-12-23T19:24:43.792Z,20.27
2018-12-23T19:29:29.278Z,22.50
2018-12-23T19:32:09.752Z,16.73
2018-12-23T19:36:21.907Z,18.40
2018-12-23T19:39:06.102Z,23.23
2018-12-23T19:42:02.371Z,23.50
2018-12-23T19:45:47.901Z,18.53
2018-12-23T19:48:47.067Z,23.67
2018-12-23T19:51:29.642Z,20.70
2018-12-23T19:54:28.098Z,16.67
2018-12-23T19:57:16.272Z,20.10
2018-12-23T19:59:58.758Z,18.10
2018-12-23T20:03:43.592Z,19.63
2018-12-23T20:06:25.933Z,18.33
2018-12-23T20:12:13.221Z,25.03
2018-12-23T20:14:55.652Z,19.17
2018-12-23T20:17:46.892Z,14.60
2018-12-23T20:20:34.097Z,22.35
2018-12-23T20:23:21.668Z,20.13
2018-12-23T20:26:05.852Z,22.13
2018-12-23T20:29:23.217Z,29.03
2018-12-23T20:32:33.392Z,20.17
2018-12-23T20:35:14.006Z,24.53
2018-12-23T20:43:00.388Z,19.33
2018-12-23T20:46:20.917Z,21.13
2018-12-23T20:49:48.571Z,17.30
2018-12-23T20:53:00.707Z,28.50
2018-12-23T20:56:02.762Z,31.87
2018-12-23T20:59:12.002Z,35.93
2018-12-23T21:02:46.222Z,26.53
2018-12-23T21:05:43.846Z,36.30
2018-12-23T21:08:44.836Z,28.30
2018-12-23T21:11:55.357Z,36.23
2018-12-23T21:15:03.901Z,23.63
2018-12-23T21:17:56.240Z,23.10
2018-12-23T21:21:05.046Z,18.20
2018-12-23T21:24:18.859Z,23.73
2018-12-23T21:27:26.376Z,23.87
2018-12-23T21:30:34.623Z,24.57
2018-12-23T21:33:41.722Z,16.90
2018-12-23T21:36:39.661Z,19.37
2018-12-23T21:39:48.982Z,17.90
2018-12-23T21:43:06.022Z,17.17
2018-12-23T21:46:12.276Z,24.70
2018-12-23T21:49:14.371Z,29.10
2018-12-23T21:52:29.815Z,20.37
2018-12-23T21:55:25.853Z,20.33
2018-12-23T21:58:20.561Z,21.33
2018-12-23T22:01:12.486Z,20.80
2018-12-23T22:04:16.406Z,24.63
2018-12-23T22:07:28.062Z,17.03
2018-12-23T22:10:17.916Z,18.50
2018-12-23T22:13:28.756Z,12.97
2018-12-23T22:16:01.181Z,20.45
2018-12-23T22:18:33.969Z,12.30
2018-12-23T22:21:06.106Z,15.20
2018-12-23T22:23:38.346Z,18.67
2018-12-23T22:26:10.425Z,18.03
2018-12-23T22:28:42.387Z,18.63
2018-12-23T22:31:14.326Z,19.87
2018-12-23T22:33:47.121Z,24.67
2018-12-23T22:36:19.636Z,14.87
2018-12-23T22:38:51.965Z,18.77
2018-12-23T22:41:41.258Z,15.03
2018-12-23T22:44:10.567Z,17.57
2018-12-23T22:46:42.886Z,23.67
2018-12-23T22:49:14.857Z,25.73
2018-12-23T22:51:47.082Z,18.37
2018-12-23T22:54:19.086Z,13.72
2018-12-23T22:56:51.494Z,13.47
2018-12-23T22:59:23.447Z,19.70
2018-12-23T23:01:56.924Z,17.07
2018-12-23T23:04:30.306Z,11.33
2018-12-23T23:07:02.161Z,17.23
2018-12-23T23:09:34.706Z,10.53
2018-12-23T23:12:06.846Z,10.87
2018-12-23T23:14:38.881Z,13.90
2018-12-23T23:17:12.751Z,15.00
2018-12-23T23:19:45.026Z,11.87
2018-12-23T23:22:17.716Z,18.67
2018-12-23T23:24:50.086Z,10.20
2018-12-23T23:27:22.586Z,9.35
2018-12-23T23:29:54.910Z,8.33
2018-12-23T23:32:27.140Z,8.67
2018-12-23T23:34:59.041Z,18.63
2018-12-23T23:37:30.931Z,11.77
2018-12-23T23:40:03.369Z,12.77
2018-12-23T23:42:35.631Z,19.07
2018-12-23T23:45:08.020Z,13.83
2018-12-23T23:47:40.016Z,12.73
2018-12-23T23:50:11.961Z,17.77
2018-12-23T23:52:43.771Z,13.33
2018-12-23T23:55:18.205Z,15.68
2018-12-23T23:57:50.101Z,17.80
